^^
Grace C. Lehan Memorial Weather Station Historical Data
Daily Summary for January 28, 2021 Units:  Both    English   Metric
Daily Weekly Monthly Yearly
  High: Low: Average:
Temperature: 64.1 °F /  17.8 °C 47.9 °F /  8.8 °C 57.1 °F /  13.9 °C
Dew Point: 50.8 °F /  10.4 °C 38.9 °F /  3.8 °C 44.6 °F /  7 °C
Humidity: 94% 45% 65%
Wind Speed: 5.4mph /  8.7km/h - 1.2mph /  1.9km/h
Wind Gust: 15mph /  24.1km/h - -
Wind- - ESE
Pressure: 30.11 in /  1019.5 hPa 29.96 in /  1014.4 hPa -
Precipitation: 0.36 in /  9.14 mm    
 
 
Tabular Data for January 28, 2021
Time Temperature Dew Point Pressure Wind Wind Speed Wind Gust Humidity Rainfall Rate (Hourly) solar
00:09 60.7 °F /  15.9 °C 47 °F /  8.3 °C 30.01in /  1016.1hPa Calm   1mph /  1.6km/h 60.5% 0.00in /  0mm 0 W/m2
00:14 60.5 °F /  15.8 °C 47 °F /  8.3 °C 30.01in /  1016.1hPa NNW 0.2mph /  0.3km/h 4mph /  6.4km/h 61% 0.00in /  0mm 0 W/m2
00:19 60.3 °F /  15.7 °C 46.8 °F /  8.2 °C 30.01in /  1016.1hPa NNW 0.7mph /  1.1km/h 5mph /  8km/h 61% 0.00in /  0mm 0 W/m2
00:24 60.2 °F /  15.7 °C 46.7 °F /  8.2 °C 30.02in /  1016.5hPa NW 0.6mph /  1km/h 5mph /  8km/h 61% 0.00in /  0mm 0 W/m2
00:29 60.1 °F /  15.6 °C 46.6 °F /  8.1 °C 30.02in /  1016.5hPa Calm   5mph /  8km/h 61% 0.00in /  0mm 0 W/m2
00:34 60 °F /  15.6 °C 46.8 °F /  8.2 °C 30.02in /  1016.5hPa Calm   5mph /  8km/h 61.6% 0.00in /  0mm 0 W/m2
00:39 59.9 °F /  15.5 °C 46.9 °F /  8.3 °C 30.02in /  1016.5hPa Calm     62% 0.00in /  0mm 0 W/m2
00:44 59.8 °F /  15.4 °C 46.8 °F /  8.2 °C 30.02in /  1016.5hPa NNW 0.1mph /  0.2km/h 2mph /  3.2km/h 62% 0.00in /  0mm 0 W/m2
00:49 59.7 °F /  15.4 °C 46.9 °F /  8.3 °C 30.02in /  1016.5hPa NNW 0.1mph /  0.2km/h 2mph /  3.2km/h 62.5% 0.00in /  0mm 0 W/m2
00:54 59.6 °F /  15.3 °C 47 °F /  8.3 °C 30.02in /  1016.5hPa NNW 0.3mph /  0.5km/h 3mph /  4.8km/h 63% 0.00in /  0mm 0 W/m2
00:59 59.4 °F /  15.2 °C 46.9 °F /  8.3 °C 30.02in /  1016.5hPa Calm   3mph /  4.8km/h 63% 0.00in /  0mm 0 W/m2
01:04 59.3 °F /  15.2 °C 46.7 °F /  8.2 °C 30.02in /  1016.5hPa Calm   3mph /  4.8km/h 63% 0.00in /  0mm 0 W/m2
01:09 59.2 °F /  15.1 °C 46.7 °F /  8.2 °C 30.02in /  1016.5hPa NNW 0.9mph /  1.4km/h 5mph /  8km/h 63.2% 0.00in /  0mm 0 W/m2
01:14 59.1 °F /  15.1 °C 46.7 °F /  8.2 °C 30.02in /  1016.5hPa Calm   5mph /  8km/h 63.5% 0.00in /  0mm 0 W/m2
01:19 59.1 °F /  15.1 °C 46.9 °F /  8.3 °C 30.02in /  1016.5hPa NNW 1.7mph /  2.7km/h 7mph /  11.3km/h 64% 0.00in /  0mm 0 W/m2
01:24 59 °F /  15 °C 46.7 °F /  8.2 °C 30.02in /  1016.5hPa NNE 0.8mph /  1.3km/h 9mph /  14.5km/h 63.6% 0.00in /  0mm 0 W/m2
01:29 59 °F /  15 °C 46.9 °F /  8.3 °C 30.02in /  1016.5hPa North 0.4mph /  0.6km/h 9mph /  14.5km/h 64% 0.00in /  0mm 0 W/m2
01:34 59 °F /  15 °C 46.9 °F /  8.3 °C 30.02in /  1016.5hPa North 0.5mph /  0.8km/h 9mph /  14.5km/h 64% 0.00in /  0mm 0 W/m2
01:39 59 °F /  15 °C 46.9 °F /  8.3 °C 30.02in /  1016.5hPa NNE 0.3mph /  0.5km/h 7mph /  11.3km/h 64% 0.00in /  0mm 0 W/m2
01:44 59.1 °F /  15.1 °C 46.9 °F /  8.3 °C 30.02in /  1016.5hPa NE 0.5mph /  0.8km/h 7mph /  11.3km/h 64% 0.00in /  0mm 0 W/m2
01:49 59.1 °F /  15.1 °C 46.8 °F /  8.2 °C 30.02in /  1016.5hPa NE 0.4mph /  0.6km/h 7mph /  11.3km/h 63.6% 0.00in /  0mm 0 W/m2
01:54 59.1 °F /  15.1 °C 46.5 °F /  8.1 °C 30.02in /  1016.5hPa North 1.4mph /  2.3km/h 7mph /  11.3km/h 62.8% 0.00in /  0mm 0 W/m2
01:59 59.1 °F /  15.1 °C 46.2 °F /  7.9 °C 30.02in /  1016.5hPa NE 0.7mph /  1.1km/h 7mph /  11.3km/h 62.2% 0.00in /  0mm 0 W/m2
02:04 59.1 °F /  15.1 °C 46.1 °F /  7.8 °C 30.02in /  1016.5hPa NNW 1mph /  1.6km/h 7mph /  11.3km/h 62% 0.00in /  0mm 0 W/m2
02:09 59.1 °F /  15.1 °C 46.1 °F /  7.8 °C 30.02in /  1016.5hPa North 0.2mph /  0.3km/h 7mph /  11.3km/h 62.1% 0.00in /  0mm 0 W/m2
02:14 59 °F /  15 °C 46 °F /  7.8 °C 30.03in /  1016.8hPa NE 0.4mph /  0.6km/h 7mph /  11.3km/h 62% 0.00in /  0mm 0 W/m2
02:19 58.9 °F /  14.9 °C 45.9 °F /  7.7 °C 30.03in /  1016.8hPa NNE 0.9mph /  1.4km/h 10mph /  16.1km/h 62% 0.00in /  0mm 0 W/m2
02:24 58.8 °F /  14.9 °C 45.5 °F /  7.5 °C 30.03in /  1016.8hPa East 0.6mph /  1km/h 10mph /  16.1km/h 61.1% 0.00in /  0mm 0 W/m2
02:29 58.8 °F /  14.9 °C 45.4 °F /  7.4 °C 30.03in /  1016.8hPa ENE 1.2mph /  1.9km/h 10mph /  16.1km/h 61% 0.00in /  0mm 0 W/m2
02:34 58.7 °F /  14.8 °C 45.4 °F /  7.4 °C 30.03in /  1016.8hPa ENE 1mph /  1.6km/h 10mph /  16.1km/h 61.1% 0.00in /  0mm 0 W/m2
02:39 58.7 °F /  14.8 °C 45.2 °F /  7.3 °C 30.02in /  1016.5hPa ENE 1.4mph /  2.3km/h 6mph /  9.7km/h 60.9% 0.00in /  0mm 0 W/m2
02:44 58.6 °F /  14.8 °C 44.6 °F /  7 °C 30.02in /  1016.5hPa ENE 1.8mph /  2.9km/h 10mph /  16.1km/h 59.6% 0.00in /  0mm 0 W/m2
02:49 58.5 °F /  14.7 °C 43.9 °F /  6.6 °C 30.03in /  1016.8hPa NE 2.3mph /  3.7km/h 10mph /  16.1km/h 58.1% 0.00in /  0mm 0 W/m2
02:54 58.5 °F /  14.7 °C 43.7 °F /  6.5 °C 30.03in /  1016.8hPa NE 1.2mph /  1.9km/h 11mph /  17.7km/h 57.8% 0.00in /  0mm 0 W/m2
02:59 58.4 °F /  14.7 °C 42.7 °F /  5.9 °C 30.03in /  1016.8hPa ENE 3.2mph /  5.1km/h 11mph /  17.7km/h 55.8% 0.00in /  0mm 0 W/m2
03:04 58.3 °F /  14.6 °C 42.2 °F /  5.7 °C 30.03in /  1016.8hPa NE 3.9mph /  6.3km/h 11mph /  17.7km/h 55% 0.00in /  0mm 0 W/m2
03:09 58.2 °F /  14.6 °C 42.1 °F /  5.6 °C 30.03in /  1016.8hPa NE 2.7mph /  4.3km/h 8mph /  12.9km/h 55% 0.00in /  0mm 0 W/m2
03:14 58.1 °F /  14.5 °C 42.1 °F /  5.6 °C 30.03in /  1016.8hPa ENE 1mph /  1.6km/h 8mph /  12.9km/h 55.1% 0.00in /  0mm 0 W/m2
03:19 58 °F /  14.4 °C 42.1 °F /  5.6 °C 30.03in /  1016.8hPa ENE 0.4mph /  0.6km/h 8mph /  12.9km/h 55.4% 0.00in /  0mm 0 W/m2
03:24 57.9 °F /  14.4 °C 41.7 °F /  5.4 °C 30.03in /  1016.8hPa NE 1.6mph /  2.6km/h 8mph /  12.9km/h 54.7% 0.00in /  0mm 0 W/m2
03:29 57.7 °F /  14.3 °C 41.4 °F /  5.2 °C 30.03in /  1016.8hPa NE 2.7mph /  4.3km/h 9mph /  14.5km/h 54.5% 0.00in /  0mm 0 W/m2
03:34 57.6 °F /  14.2 °C 41.7 °F /  5.4 °C 30.04in /  1017.2hPa ENE 0.3mph /  0.5km/h 9mph /  14.5km/h 55.2% 0.00in /  0mm 0 W/m2
03:39 57.5 °F /  14.2 °C 41.8 °F /  5.4 °C 30.04in /  1017.2hPa NNE 0.7mph /  1.1km/h 8mph /  12.9km/h 55.7% 0.00in /  0mm 0 W/m2
03:44 57.4 °F /  14.1 °C 41.4 °F /  5.2 °C 30.04in /  1017.2hPa NE 1.6mph /  2.6km/h 10mph /  16.1km/h 55% 0.00in /  0mm 0 W/m2
03:49 57.3 °F /  14.1 °C 41.3 °F /  5.2 °C 30.04in /  1017.2hPa NE 0.5mph /  0.8km/h 10mph /  16.1km/h 55% 0.00in /  0mm 0 W/m2
03:54 57.2 °F /  14 °C 41.3 °F /  5.2 °C 30.05in /  1017.5hPa NE 0.8mph /  1.3km/h 10mph /  16.1km/h 55.2% 0.00in /  0mm 0 W/m2
03:59 57.1 °F /  13.9 °C 41 °F /  5 °C 30.05in /  1017.5hPa ENE 1.2mph /  1.9km/h 10mph /  16.1km/h 54.9% 0.00in /  0mm 0 W/m2
04:09 56.8 °F /  13.8 °C 40.2 °F /  4.6 °C 30.05in /  1017.5hPa North 1mph /  1.6km/h 7mph /  11.3km/h 53.5% 0.00in /  0mm 0 W/m2
04:14 56.7 °F /  13.7 °C 40.3 °F /  4.6 °C 30.05in /  1017.5hPa East 0.7mph /  1.1km/h 7mph /  11.3km/h 54% 0.00in /  0mm 0 W/m2
04:19 56.7 °F /  13.7 °C 40.4 °F /  4.7 °C 30.05in /  1017.5hPa ENE 0.3mph /  0.5km/h 7mph /  11.3km/h 54.4% 0.00in /  0mm 0 W/m2
04:24 56.6 °F /  13.7 °C 40.2 °F /  4.6 °C 30.05in /  1017.5hPa ENE 0.8mph /  1.3km/h 7mph /  11.3km/h 54.1% 0.00in /  0mm 0 W/m2
04:29 56.5 °F /  13.6 °C 40.1 °F /  4.5 °C 30.05in /  1017.5hPa ENE 0.6mph /  1km/h 7mph /  11.3km/h 54% 0.00in /  0mm 0 W/m2
04:34 56.4 °F /  13.6 °C 40.5 °F /  4.7 °C 30.05in /  1017.5hPa NNE 0.5mph /  0.8km/h 7mph /  11.3km/h 55% 0.00in /  0mm 0 W/m2
04:39 56.3 °F /  13.5 °C 40.2 °F /  4.6 °C 30.05in /  1017.5hPa ENE 0.9mph /  1.4km/h 6mph /  9.7km/h 54.6% 0.00in /  0mm 0 W/m2
04:44 56.3 °F /  13.5 °C 40.2 °F /  4.6 °C 30.05in /  1017.5hPa East 0.1mph /  0.2km/h 6mph /  9.7km/h 54.7% 0.00in /  0mm 0 W/m2
04:49 56.2 °F /  13.4 °C 40.2 °F /  4.6 °C 30.06in /  1017.8hPa ENE 0.4mph /  0.6km/h 6mph /  9.7km/h 55% 0.00in /  0mm 0 W/m2
04:54 56 °F /  13.3 °C 40 °F /  4.4 °C 30.06in /  1017.8hPa ENE 0.1mph /  0.2km/h 6mph /  9.7km/h 54.8% 0.00in /  0mm 0 W/m2
04:59 55.9 °F /  13.3 °C 40 °F /  4.4 °C 30.06in /  1017.8hPa NE 0.2mph /  0.3km/h 8mph /  12.9km/h 55% 0.00in /  0mm 0 W/m2
05:04 55.8 °F /  13.2 °C 40 °F /  4.4 °C 30.06in /  1017.8hPa NNW 0.8mph /  1.3km/h 8mph /  12.9km/h 55.3% 0.00in /  0mm 0 W/m2
05:09 55.6 °F /  13.1 °C 39.9 °F /  4.4 °C 30.06in /  1017.8hPa NNE 0.2mph /  0.3km/h 7mph /  11.3km/h 55.3% 0.00in /  0mm 0 W/m2
05:14 55.5 °F /  13.1 °C 39.7 °F /  4.3 °C 30.06in /  1017.8hPa NE 0.6mph /  1km/h 7mph /  11.3km/h 55.3% 0.00in /  0mm 0 W/m2
05:19 55.3 °F /  12.9 °C 39.6 °F /  4.2 °C 30.06in /  1017.8hPa NE 0.6mph /  1km/h 7mph /  11.3km/h 55.5% 0.00in /  0mm 0 W/m2
05:24 55.1 °F /  12.8 °C 39.7 °F /  4.3 °C 30.07in /  1018.2hPa NNE 0.2mph /  0.3km/h 7mph /  11.3km/h 56.1% 0.00in /  0mm 0 W/m2
05:29 54.9 °F /  12.7 °C 39.6 °F /  4.2 °C 30.07in /  1018.2hPa NNW 0.2mph /  0.3km/h 7mph /  11.3km/h 56.2% 0.00in /  0mm 0 W/m2
05:34 54.7 °F /  12.6 °C 39.4 °F /  4.1 °C 30.07in /  1018.2hPa North 0.1mph /  0.2km/h 7mph /  11.3km/h 56.3% 0.00in /  0mm 5 W/m2
05:39 54.5 °F /  12.5 °C 39.3 °F /  4.1 °C 30.07in /  1018.2hPa Calm   3mph /  4.8km/h 56.4% 0.00in /  0mm 12 W/m2
05:44 54.3 °F /  12.4 °C 39.4 °F /  4.1 °C 30.07in /  1018.2hPa NNE 0.1mph /  0.2km/h 3mph /  4.8km/h 57% 0.00in /  0mm 16 W/m2
05:49 54.2 °F /  12.3 °C 39.3 °F /  4.1 °C 30.07in /  1018.2hPa Calm   3mph /  4.8km/h 57% 0.00in /  0mm 16 W/m2
05:54 54.1 °F /  12.3 °C 39.2 °F /  4 °C 30.07in /  1018.2hPa Calm   3mph /  4.8km/h 57% 0.00in /  0mm 19 W/m2
05:59 54 °F /  12.2 °C 39.2 °F /  4 °C 30.07in /  1018.2hPa East 0.2mph /  0.3km/h 5mph /  8km/h 57.3% 0.00in /  0mm 21 W/m2
06:04 53.9 °F /  12.2 °C 39.1 °F /  3.9 °C 30.08in /  1018.5hPa NE 0.5mph /  0.8km/h 5mph /  8km/h 57.1% 0.00in /  0mm 21 W/m2
06:09 53.9 °F /  12.2 °C 39.4 °F /  4.1 °C 30.08in /  1018.5hPa NE 0.1mph /  0.2km/h 3mph /  4.8km/h 57.9% 0.00in /  0mm 23 W/m2
06:14 53.8 °F /  12.1 °C 39.2 °F /  4 °C 30.08in /  1018.5hPa NE 0.1mph /  0.2km/h 3mph /  4.8km/h 57.5% 0.00in /  0mm 25 W/m2
06:19 53.8 °F /  12.1 °C 39.3 °F /  4.1 °C 30.08in /  1018.5hPa NE 0.8mph /  1.3km/h 7mph /  11.3km/h 57.8% 0.00in /  0mm 32 W/m2
06:24 53.8 °F /  12.1 °C 38.9 °F /  3.8 °C 30.09in /  1018.8hPa NE 1mph /  1.6km/h 8mph /  12.9km/h 57% 0.00in /  0mm 53 W/m2
06:29 53.9 °F /  12.2 °C 39.4 °F /  4.1 °C 30.09in /  1018.8hPa NNE 0.2mph /  0.3km/h 8mph /  12.9km/h 57.8% 0.00in /  0mm 65 W/m2
06:34 54 °F /  12.2 °C 39.2 °F /  4 °C 30.09in /  1018.8hPa ENE 0.4mph /  0.6km/h 8mph /  12.9km/h 57.2% 0.00in /  0mm 62 W/m2
06:39 54.1 °F /  12.3 °C 39.3 °F /  4.1 °C 30.09in /  1018.8hPa East 0.7mph /  1.1km/h 9mph /  14.5km/h 57.2% 0.00in /  0mm 63 W/m2
06:44 54.1 °F /  12.3 °C 39.1 °F /  3.9 °C 30.09in /  1018.8hPa East 0.5mph /  0.8km/h 9mph /  14.5km/h 56.7% 0.00in /  0mm 67 W/m2
06:49 54 °F /  12.2 °C 39.2 °F /  4 °C 30.09in /  1018.8hPa East 0.6mph /  1km/h 9mph /  14.5km/h 57.1% 0.00in /  0mm 60 W/m2
06:54 54 °F /  12.2 °C 39.2 °F /  4 °C 30.10in /  1019.2hPa ENE 0.3mph /  0.5km/h 9mph /  14.5km/h 57.2% 0.00in /  0mm 49 W/m2
06:59 53.9 °F /  12.2 °C 39.4 °F /  4.1 °C 30.10in /  1019.2hPa ESE 0.2mph /  0.3km/h 9mph /  14.5km/h 57.8% 0.00in /  0mm 49 W/m2
07:04 53.9 °F /  12.2 °C 39.3 °F /  4.1 °C 30.10in /  1019.2hPa East 0.3mph /  0.5km/h 9mph /  14.5km/h 57.5% 0.00in /  0mm 60 W/m2
07:09 53.8 °F /  12.1 °C 39.1 °F /  3.9 °C 30.09in /  1018.8hPa NE 1.5mph /  2.4km/h 6mph /  9.7km/h 57.3% 0.00in /  0mm 125 W/m2
07:14 54 °F /  12.2 °C 40 °F /  4.4 °C 30.09in /  1018.8hPa ENE 0.5mph /  0.8km/h 7mph /  11.3km/h 59% 0.00in /  0mm 156 W/m2
07:19 54.5 °F /  12.5 °C 39.9 °F /  4.4 °C 30.08in /  1018.5hPa ENE 0.9mph /  1.4km/h 7mph /  11.3km/h 57.9% 0.00in /  0mm 193 W/m2
07:24 54.8 °F /  12.7 °C 40 °F /  4.4 °C 30.08in /  1018.5hPa ENE 0.8mph /  1.3km/h 7mph /  11.3km/h 57.3% 0.00in /  0mm 77 W/m2
07:29 54.8 °F /  12.7 °C 40.4 °F /  4.7 °C 30.09in /  1018.8hPa ENE 0.2mph /  0.3km/h 7mph /  11.3km/h 58.1% 0.00in /  0mm 132 W/m2
07:34 55 °F /  12.8 °C 40.9 °F /  4.9 °C 30.10in /  1019.2hPa East 0.5mph /  0.8km/h 7mph /  11.3km/h 58.8% 0.00in /  0mm 367 W/m2
07:39 55.9 °F /  13.3 °C 41.8 °F /  5.4 °C 30.10in /  1019.2hPa North 0.2mph /  0.3km/h 5mph /  8km/h 59.1% 0.00in /  0mm 367 W/m2
07:44 56.8 °F /  13.8 °C 41.5 °F /  5.3 °C 30.10in /  1019.2hPa ENE 0.3mph /  0.5km/h 5mph /  8km/h 56.4% 0.00in /  0mm 223 W/m2
07:49 57.3 °F /  14.1 °C 41.5 °F /  5.3 °C 30.10in /  1019.2hPa NNE 0.1mph /  0.2km/h 5mph /  8km/h 55.3% 0.00in /  0mm 427 W/m2
07:54 58 °F /  14.4 °C 41.9 °F /  5.5 °C 30.10in /  1019.2hPa NNE 0.3mph /  0.5km/h 5mph /  8km/h 54.9% 0.00in /  0mm 418 W/m2
07:59 58.4 °F /  14.7 °C 41.2 °F /  5.1 °C 30.10in /  1019.2hPa East 0.1mph /  0.2km/h 5mph /  8km/h 52.8% 0.00in /  0mm 515 W/m2
08:00 58.4 °F /  14.7 °C 41.8 °F /  5.4 °C 30.10in /  1019.2hPa Calm   5mph /  8km/h 54% 0.00in /  0mm 515 W/m2
08:09 58.5 °F /  14.7 °C 41.2 °F /  5.1 °C 30.11in /  1019.5hPa ENE 0.6mph /  1km/h 3mph /  4.8km/h 52.5% 0.00in /  0mm 302 W/m2
08:14 58.4 °F /  14.7 °C 41.4 °F /  5.2 °C 30.11in /  1019.5hPa NNE 0.7mph /  1.1km/h 4mph /  6.4km/h 53.1% 0.00in /  0mm 330 W/m2
08:19 58.3 °F /  14.6 °C 41.7 °F /  5.4 °C 30.11in /  1019.5hPa NE 0.3mph /  0.5km/h 4mph /  6.4km/h 53.9% 0.00in /  0mm 276 W/m2
08:24 58.1 °F /  14.5 °C 41.2 °F /  5.1 °C 30.11in /  1019.5hPa NE 0.9mph /  1.4km/h 6mph /  9.7km/h 53.3% 0.00in /  0mm 295 W/m2
08:29 58.1 °F /  14.5 °C 41.2 °F /  5.1 °C 30.11in /  1019.5hPa NE 0.5mph /  0.8km/h 6mph /  9.7km/h 53.4% 0.00in /  0mm 388 W/m2
08:34 58 °F /  14.4 °C 40.8 °F /  4.9 °C 30.11in /  1019.5hPa NE 0.7mph /  1.1km/h 6mph /  9.7km/h 52.7% 0.00in /  0mm 476 W/m2
08:39 57.9 °F /  14.4 °C 41.6 °F /  5.3 °C 30.11in /  1019.5hPa NNW 1.3mph /  2.1km/h 6mph /  9.7km/h 54.4% 0.00in /  0mm 308 W/m2
08:44 58.2 °F /  14.6 °C 40.6 °F /  4.8 °C 30.11in /  1019.5hPa ENE 2.2mph /  3.5km/h 10mph /  16.1km/h 51.8% 0.00in /  0mm 292 W/m2
08:49 58.3 °F /  14.6 °C 40.3 °F /  4.6 °C 30.11in /  1019.5hPa NNE 0.8mph /  1.3km/h 10mph /  16.1km/h 51.1% 0.00in /  0mm 295 W/m2
08:54 58.4 °F /  14.7 °C 40.3 °F /  4.6 °C 30.11in /  1019.5hPa NNE 0.4mph /  0.6km/h 10mph /  16.1km/h 51% 0.00in /  0mm 318 W/m2
08:59 58.6 °F /  14.8 °C 40.5 °F /  4.7 °C 30.11in /  1019.5hPa NNW 2mph /  3.2km/h 14mph /  22.5km/h 51% 0.00in /  0mm 868 W/m2
09:04 59.3 °F /  15.2 °C 42.1 °F /  5.6 °C 30.11in /  1019.5hPa NW 0.9mph /  1.4km/h 14mph /  22.5km/h 52.8% 0.00in /  0mm 868 W/m2
09:09 60.1 °F /  15.6 °C 41 °F /  5 °C 30.11in /  1019.5hPa NNE 2.5mph /  4km/h 7mph /  11.3km/h 49.1% 0.00in /  0mm 313 W/m2
09:14 60.6 °F /  15.9 °C 41.6 °F /  5.3 °C 30.11in /  1019.5hPa North 1.5mph /  2.4km/h 10mph /  16.1km/h 49.4% 0.00in /  0mm 914 W/m2
09:19 60.8 °F /  16 °C 41.9 °F /  5.5 °C 30.11in /  1019.5hPa NNE 1.6mph /  2.6km/h 10mph /  16.1km/h 49.6% 0.00in /  0mm 914 W/m2
09:24 61.3 °F /  16.3 °C 42.1 °F /  5.6 °C 30.11in /  1019.5hPa North 1.5mph /  2.4km/h 10mph /  16.1km/h 49.2% 0.00in /  0mm 786 W/m2
09:29 61.8 °F /  16.6 °C 41.8 °F /  5.4 °C 30.11in /  1019.5hPa North 2.1mph /  3.4km/h 12mph /  19.3km/h 47.9% 0.00in /  0mm 786 W/m2
09:34 61.9 °F /  16.6 °C 41.3 °F /  5.2 °C 30.11in /  1019.5hPa North 1mph /  1.6km/h 12mph /  19.3km/h 46.6% 0.00in /  0mm 476 W/m2
09:39 61.7 °F /  16.5 °C 41.1 °F /  5.1 °C 30.10in /  1019.2hPa NE 1.9mph /  3.1km/h 11mph /  17.7km/h 46.7% 0.00in /  0mm 557 W/m2
09:44 61.7 °F /  16.5 °C 42.2 °F /  5.7 °C 30.10in /  1019.2hPa North 1.2mph /  1.9km/h 11mph /  17.7km/h 48.6% 0.00in /  0mm 557 W/m2
09:49 62 °F /  16.7 °C 42.3 °F /  5.7 °C 30.10in /  1019.2hPa North 2.8mph /  4.5km/h 11mph /  17.7km/h 48.3% 0.00in /  0mm 795 W/m2
09:54 62.1 °F /  16.7 °C 41.8 °F /  5.4 °C 30.10in /  1019.2hPa NNE 1.4mph /  2.3km/h 11mph /  17.7km/h 47.3% 0.00in /  0mm 958 W/m2
09:59 62.1 °F /  16.7 °C 42.4 °F /  5.8 °C 30.10in /  1019.2hPa NNE 2.2mph /  3.5km/h 11mph /  17.7km/h 48.3% 0.00in /  0mm 831 W/m2
10:04 62 °F /  16.7 °C 42.2 °F /  5.7 °C 30.10in /  1019.2hPa NNE 0.5mph /  0.8km/h 11mph /  17.7km/h 48.1% 0.00in /  0mm 570 W/m2
10:09 62.1 °F /  16.7 °C 42.9 °F /  6.1 °C 30.10in /  1019.2hPa NNW 1.2mph /  1.9km/h 7mph /  11.3km/h 49.3% 0.00in /  0mm 589 W/m2
10:14 62.3 °F /  16.8 °C 42.2 °F /  5.7 °C 30.10in /  1019.2hPa ENE 1.7mph /  2.7km/h 7mph /  11.3km/h 47.7% 0.00in /  0mm 555 W/m2
10:19 61.8 °F /  16.6 °C 41.8 °F /  5.4 °C 30.09in /  1018.8hPa NE 0.4mph /  0.6km/h 7mph /  11.3km/h 47.9% 0.00in /  0mm 548 W/m2
10:24 62 °F /  16.7 °C 42.8 °F /  6 °C 30.09in /  1018.8hPa North 0.9mph /  1.4km/h 10mph /  16.1km/h 49.4% 0.00in /  0mm 548 W/m2
10:29 62.9 °F /  17.2 °C 43.6 °F /  6.4 °C 30.09in /  1018.8hPa NW 1.1mph /  1.8km/h 10mph /  16.1km/h 49.4% 0.00in /  0mm 687 W/m2
10:30 63.4 °F /  17.4 °C 43.9 °F /  6.6 °C 30.09in /  1018.8hPa NNE 1mph /  1.6km/h 11mph /  17.7km/h 49% 0.00in /  0mm 525 W/m2
11:00 62.1 °F /  16.7 °C 40.5 °F /  4.7 °C 30.08in /  1018.5hPa NE 2mph /  3.2km/h 10mph /  16.1km/h 45% 0.00in /  0mm 447 W/m2
11:30 62.3 °F /  16.8 °C 41.8 °F /  5.4 °C 30.07in /  1018.2hPa ENE 1mph /  1.6km/h 10mph /  16.1km/h 47% 0.00in /  0mm 511 W/m2
12:04 61.7 °F /  16.5 °C 43.7 °F /  6.5 °C 30.06in /  1017.8hPa NW 2.5mph /  4km/h 5mph /  8km/h 51.6% 0.00in /  0mm 223 W/m2
12:09 61.6 °F /  16.4 °C 43.5 °F /  6.4 °C 30.07in /  1018.2hPa NW 1.4mph /  2.3km/h 7mph /  11.3km/h 51.5% 0.00in /  0mm 279 W/m2
12:14 61.5 °F /  16.4 °C 43.6 °F /  6.4 °C 30.06in /  1017.8hPa NW 1mph /  1.6km/h 7mph /  11.3km/h 51.7% 0.00in /  0mm 294 W/m2
12:19 61.5 °F /  16.4 °C 43 °F /  6.1 °C 30.06in /  1017.8hPa NW 1.6mph /  2.6km/h 10mph /  16.1km/h 50.7% 0.00in /  0mm 283 W/m2
12:24 61.4 °F /  16.3 °C 43.4 °F /  6.3 °C 30.06in /  1017.8hPa NW 0.8mph /  1.3km/h 10mph /  16.1km/h 51.5% 0.00in /  0mm 295 W/m2
12:29 61.4 °F /  16.3 °C 43.5 °F /  6.4 °C 30.06in /  1017.8hPa WNW 0.9mph /  1.4km/h 10mph /  16.1km/h 51.7% 0.00in /  0mm 306 W/m2
12:34 61.3 °F /  16.3 °C 43.2 °F /  6.2 °C 30.06in /  1017.8hPa ENE 0.6mph /  1km/h 10mph /  16.1km/h 51.4% 0.00in /  0mm 378 W/m2
12:39 61.2 °F /  16.2 °C 43.5 °F /  6.4 °C 30.05in /  1017.5hPa North 0.5mph /  0.8km/h 4mph /  6.4km/h 52.2% 0.00in /  0mm 378 W/m2
12:44 61.1 °F /  16.2 °C 42.9 °F /  6.1 °C 30.05in /  1017.5hPa ENE 0.5mph /  0.8km/h 4mph /  6.4km/h 51.2% 0.00in /  0mm 531 W/m2
12:49 61.1 °F /  16.2 °C 43.9 °F /  6.6 °C 30.05in /  1017.5hPa NNE 1.4mph /  2.3km/h 9mph /  14.5km/h 53.1% 0.00in /  0mm 531 W/m2
12:54 61.6 °F /  16.4 °C 44.1 °F /  6.7 °C 30.04in /  1017.2hPa NE 1.5mph /  2.4km/h 9mph /  14.5km/h 52.6% 0.00in /  0mm 592 W/m2
12:59 62 °F /  16.7 °C 44.2 °F /  6.8 °C 30.04in /  1017.2hPa ENE 0.9mph /  1.4km/h 9mph /  14.5km/h 52.1% 0.00in /  0mm 717 W/m2
13:04 62.4 °F /  16.9 °C 44.9 °F /  7.2 °C 30.04in /  1017.2hPa NNE 2.5mph /  4km/h 9mph /  14.5km/h 52.7% 0.00in /  0mm 684 W/m2
13:09 62.9 °F /  17.2 °C 45 °F /  7.2 °C 30.03in /  1016.8hPa North 1.1mph /  1.8km/h 9mph /  14.5km/h 52% 0.00in /  0mm 527 W/m2
13:14 63.4 °F /  17.4 °C 44.3 °F /  6.8 °C 30.03in /  1016.8hPa ENE 1.8mph /  2.9km/h 9mph /  14.5km/h 49.7% 0.00in /  0mm 417 W/m2
13:19 63.4 °F /  17.4 °C 44.8 °F /  7.1 °C 30.03in /  1016.8hPa North 1.1mph /  1.8km/h 9mph /  14.5km/h 50.7% 0.00in /  0mm 371 W/m2
13:24 63.4 °F /  17.4 °C 45.1 °F /  7.3 °C 30.03in /  1016.8hPa NNW 0.2mph /  0.3km/h 9mph /  14.5km/h 51.2% 0.00in /  0mm 369 W/m2
13:29 63.3 °F /  17.4 °C 44.6 °F /  7 °C 30.03in /  1016.8hPa NNE 0.5mph /  0.8km/h 9mph /  14.5km/h 50.5% 0.00in /  0mm 464 W/m2
13:34 63.4 °F /  17.4 °C 45.2 °F /  7.3 °C 30.03in /  1016.8hPa NNW 1.6mph /  2.6km/h 9mph /  14.5km/h 51.4% 0.00in /  0mm 512 W/m2
13:39 63.7 °F /  17.6 °C 44.9 °F /  7.2 °C 30.03in /  1016.8hPa NNW 3.5mph /  5.6km/h 8mph /  12.9km/h 50.5% 0.00in /  0mm 563 W/m2
13:44 63.9 °F /  17.7 °C 45.5 °F /  7.5 °C 30.03in /  1016.8hPa NNW 2.2mph /  3.5km/h 10mph /  16.1km/h 51.2% 0.00in /  0mm 494 W/m2
13:49 64.1 °F /  17.8 °C 44.8 °F /  7.1 °C 30.03in /  1016.8hPa NE 1.7mph /  2.7km/h 10mph /  16.1km/h 49.5% 0.00in /  0mm 499 W/m2
13:54 64 °F /  17.8 °C 44.6 °F /  7 °C 30.03in /  1016.8hPa North 1mph /  1.6km/h 10mph /  16.1km/h 49.1% 0.00in /  0mm 536 W/m2
13:59 64 °F /  17.8 °C 44.5 °F /  6.9 °C 30.02in /  1016.5hPa North 2.5mph /  4km/h 10mph /  16.1km/h 49.1% 0.00in /  0mm 480 W/m2
14:04 63.8 °F /  17.7 °C 44.5 °F /  6.9 °C 30.02in /  1016.5hPa ENE 1.5mph /  2.4km/h 10mph /  16.1km/h 49.4% 0.00in /  0mm 508 W/m2
14:09 63.6 °F /  17.6 °C 44.5 °F /  6.9 °C 30.03in /  1016.8hPa NNW 1.5mph /  2.4km/h 7mph /  11.3km/h 49.7% 0.00in /  0mm 294 W/m2
14:14 63.3 °F /  17.4 °C 44.1 °F /  6.7 °C 30.02in /  1016.5hPa North 0.6mph /  1km/h 7mph /  11.3km/h 49.4% 0.00in /  0mm 320 W/m2
14:19 63.2 °F /  17.3 °C 44.3 °F /  6.8 °C 30.02in /  1016.5hPa NNW 1.8mph /  2.9km/h 7mph /  11.3km/h 50.1% 0.00in /  0mm 512 W/m2
14:24 63.4 °F /  17.4 °C 44.5 °F /  6.9 °C 30.02in /  1016.5hPa NNW 2.5mph /  4km/h 12mph /  19.3km/h 50.2% 0.00in /  0mm 533 W/m2
14:29 63.7 °F /  17.6 °C 44.6 °F /  7 °C 30.02in /  1016.5hPa North 0.6mph /  1km/h 12mph /  19.3km/h 49.9% 0.00in /  0mm 483 W/m2
14:34 64 °F /  17.8 °C 45.1 °F /  7.3 °C 30.02in /  1016.5hPa NW 1.6mph /  2.6km/h 12mph /  19.3km/h 50.2% 0.00in /  0mm 410 W/m2
14:39 64.1 °F /  17.8 °C 45.4 °F /  7.4 °C 30.01in /  1016.1hPa North 1mph /  1.6km/h 6mph /  9.7km/h 50.6% 0.00in /  0mm 578 W/m2
14:44 64.1 °F /  17.8 °C 44.3 °F /  6.8 °C 30.01in /  1016.1hPa North 2mph /  3.2km/h 9mph /  14.5km/h 48.4% 0.00in /  0mm 548 W/m2
14:49 64.1 °F /  17.8 °C 44.5 °F /  6.9 °C 30.01in /  1016.1hPa SSW 2.3mph /  3.7km/h 10mph /  16.1km/h 48.8% 0.00in /  0mm 489 W/m2
14:54 64.1 °F /  17.8 °C 44 °F /  6.7 °C 30.01in /  1016.1hPa ENE 2.9mph /  4.7km/h 10mph /  16.1km/h 48% 0.00in /  0mm 325 W/m2
14:59 63.8 °F /  17.7 °C 44.3 °F /  6.8 °C 30.00in /  1015.8hPa ENE 0.3mph /  0.5km/h 10mph /  16.1km/h 49% 0.00in /  0mm 320 W/m2
15:04 63.7 °F /  17.6 °C 45 °F /  7.2 °C 30.00in /  1015.8hPa NE 2.5mph /  4km/h 11mph /  17.7km/h 50.5% 0.00in /  0mm 285 W/m2
15:09 63.7 °F /  17.6 °C 44.5 °F /  6.9 °C 30.00in /  1015.8hPa NE 0.8mph /  1.3km/h 11mph /  17.7km/h 49.7% 0.00in /  0mm 301 W/m2
15:14 63.7 °F /  17.6 °C 44.4 °F /  6.9 °C 30.00in /  1015.8hPa East 2.3mph /  3.7km/h 11mph /  17.7km/h 49.4% 0.00in /  0mm 257 W/m2
15:19 63.6 °F /  17.6 °C 44.8 °F /  7.1 °C 29.99in /  1015.5hPa ENE 0.8mph /  1.3km/h 11mph /  17.7km/h 50.3% 0.00in /  0mm 202 W/m2
15:24 63.6 °F /  17.6 °C 44.1 °F /  6.7 °C 29.99in /  1015.5hPa East 1.2mph /  1.9km/h 11mph /  17.7km/h 49.1% 0.00in /  0mm 269 W/m2
15:29 63.5 °F /  17.5 °C 44.4 °F /  6.9 °C 29.98in /  1015.1hPa ENE 2mph /  3.2km/h 11mph /  17.7km/h 49.7% 0.00in /  0mm 279 W/m2
15:34 63.6 °F /  17.6 °C 44.7 °F /  7.1 °C 29.98in /  1015.1hPa ENE 1.5mph /  2.4km/h 11mph /  17.7km/h 50% 0.00in /  0mm 218 W/m2
15:39 63.6 °F /  17.6 °C 44 °F /  6.7 °C 29.98in /  1015.1hPa NE 1.6mph /  2.6km/h 11mph /  17.7km/h 48.8% 0.00in /  0mm 128 W/m2
15:44 63.3 °F /  17.4 °C 44.2 °F /  6.8 °C 29.98in /  1015.1hPa NE 1.3mph /  2.1km/h 11mph /  17.7km/h 49.6% 0.00in /  0mm 267 W/m2
15:49 63.1 °F /  17.3 °C 44.4 °F /  6.9 °C 29.98in /  1015.1hPa NE 1.3mph /  2.1km/h 11mph /  17.7km/h 50.4% 0.00in /  0mm 272 W/m2
15:54 63.2 °F /  17.3 °C 44.4 °F /  6.9 °C 29.98in /  1015.1hPa ENE 1.1mph /  1.8km/h 11mph /  17.7km/h 50.3% 0.00in /  0mm 272 W/m2
15:59 63.2 °F /  17.3 °C 44.3 °F /  6.8 °C 29.97in /  1014.8hPa NE 3.6mph /  5.8km/h 11mph /  17.7km/h 50% 0.00in /  0mm 255 W/m2
16:04 63.2 °F /  17.3 °C 43.7 °F /  6.5 °C 29.97in /  1014.8hPa ENE 0.4mph /  0.6km/h 2mph /  3.2km/h 49% 0.00in /  0mm 185 W/m2
16:09 63.2 °F /  17.3 °C 44.3 °F /  6.8 °C 29.97in /  1014.8hPa ENE 2.2mph /  3.5km/h 9mph /  14.5km/h 50.1% 0.00in /  0mm 200 W/m2
16:14 63.1 °F /  17.3 °C 43.9 °F /  6.6 °C 29.97in /  1014.8hPa NE 2.9mph /  4.7km/h 12mph /  19.3km/h 49.4% 0.00in /  0mm 179 W/m2
16:19 63.1 °F /  17.3 °C 43.8 °F /  6.6 °C 29.97in /  1014.8hPa ENE 2.8mph /  4.5km/h 12mph /  19.3km/h 49.3% 0.00in /  0mm 130 W/m2
16:24 62.9 °F /  17.2 °C 43.7 °F /  6.5 °C 29.97in /  1014.8hPa ENE 2mph /  3.2km/h 12mph /  19.3km/h 49.4% 0.00in /  0mm 98 W/m2
16:29 62.8 °F /  17.1 °C 43.7 °F /  6.5 °C 29.97in /  1014.8hPa NE 3.1mph /  5km/h 12mph /  19.3km/h 49.6% 0.00in /  0mm 90 W/m2
16:34 62.5 °F /  16.9 °C 43.6 °F /  6.4 °C 29.96in /  1014.4hPa ENE 2.6mph /  4.2km/h 12mph /  19.3km/h 50% 0.00in /  0mm 60 W/m2
16:39 62.2 °F /  16.8 °C 44.4 °F /  6.9 °C 29.96in /  1014.4hPa East 1.2mph /  1.9km/h 9mph /  14.5km/h 52.1% 0.00in /  0mm 56 W/m2
16:44 62 °F /  16.7 °C 44.8 °F /  7.1 °C 29.96in /  1014.4hPa ENE 1.5mph /  2.4km/h 10mph /  16.1km/h 53.3% 0.00in /  0mm 60 W/m2
16:49 61.8 °F /  16.6 °C 44.9 °F /  7.2 °C 29.96in /  1014.4hPa NNE 1.8mph /  2.9km/h 10mph /  16.1km/h 53.8% 0.00in /  0mm 84 W/m2
16:54 61.6 °F /  16.4 °C 45.1 °F /  7.3 °C 29.96in /  1014.4hPa ENE 2.2mph /  3.5km/h 10mph /  16.1km/h 54.8% 0.00in /  0mm 72 W/m2
16:59 61.3 °F /  16.3 °C 45.2 °F /  7.3 °C 29.96in /  1014.4hPa ENE 0.1mph /  0.2km/h 10mph /  16.1km/h 55.4% 0.00in /  0mm 65 W/m2
17:04 61 °F /  16.1 °C 46 °F /  7.8 °C 29.96in /  1014.4hPa ENE 1.3mph /  2.1km/h 10mph /  16.1km/h 57.6% 0.00in /  0mm 46 W/m2
17:09 60.8 °F /  16 °C 47.7 °F /  8.7 °C 29.97in /  1014.8hPa NNW 0.5mph /  0.8km/h 7mph /  11.3km/h 62.1% 0.00in /  0mm 28 W/m2
17:14 60.5 °F /  15.8 °C 47.9 °F /  8.8 °C 29.97in /  1014.8hPa North 0.2mph /  0.3km/h 7mph /  11.3km/h 63.1% 0.00in /  0mm 21 W/m2
17:19 60.1 °F /  15.6 °C 48.5 °F /  9.2 °C 29.98in /  1015.1hPa Calm   7mph /  11.3km/h 65.5% 0.00in /  0mm 19 W/m2
17:24 59.7 °F /  15.4 °C 49.2 °F /  9.6 °C 29.98in /  1015.1hPa Calm   7mph /  11.3km/h 68.1% 0.01in /  0.25mm 14 W/m2
17:29 59.4 °F /  15.2 °C 50.5 °F /  10.3 °C 29.99in /  1015.5hPa Calm   7mph /  11.3km/h 72.3% 0.01in /  0.25mm 12 W/m2
17:34 58.9 °F /  14.9 °C 50.8 °F /  10.4 °C 29.99in /  1015.5hPa NE 0.1mph /  0.2km/h 7mph /  11.3km/h 74.7% 0.02in /  0.51mm 18 W/m2
17:39 58.2 °F /  14.6 °C 50.2 °F /  10.1 °C 29.99in /  1015.5hPa Calm   1mph /  1.6km/h 74.6% 0.02in /  0.51mm 28 W/m2
17:44 57.3 °F /  14.1 °C 49.2 °F /  9.6 °C 29.98in /  1015.1hPa Calm   3mph /  4.8km/h 74.3% 0.02in /  0.51mm 30 W/m2
17:49 56.6 °F /  13.7 °C 49.1 °F /  9.5 °C 29.98in /  1015.1hPa East 0.2mph /  0.3km/h 5mph /  8km/h 76% 0.03in /  0.76mm 32 W/m2
17:54 56 °F /  13.3 °C 49.1 °F /  9.5 °C 29.98in /  1015.1hPa Calm   5mph /  8km/h 77.5% 0.03in /  0.76mm 37 W/m2
17:59 55.6 °F /  13.1 °C 49.4 °F /  9.7 °C 29.99in /  1015.5hPa Calm   5mph /  8km/h 79.5% 0.03in /  0.76mm 30 W/m2
18:04 55.3 °F /  12.9 °C 49.4 °F /  9.7 °C 29.99in /  1015.5hPa East 0.1mph /  0.2km/h 5mph /  8km/h 80.6% 0.03in /  0.76mm 28 W/m2
18:09 55 °F /  12.8 °C 49.6 °F /  9.8 °C 29.99in /  1015.5hPa East 0.1mph /  0.2km/h 3mph /  4.8km/h 81.9% 0.04in /  1.02mm 28 W/m2
18:14 54.8 °F /  12.7 °C 50 °F /  10 °C 29.99in /  1015.5hPa ENE 0.2mph /  0.3km/h 3mph /  4.8km/h 83.5% 0.04in /  1.02mm 14 W/m2
18:19 54.7 °F /  12.6 °C 50.3 °F /  10.2 °C 29.99in /  1015.5hPa Calm   3mph /  4.8km/h 85% 0.04in /  1.02mm 14 W/m2
18:24 54.5 °F /  12.5 °C 50.1 °F /  10.1 °C 29.99in /  1015.5hPa Calm   3mph /  4.8km/h 85% 0.04in /  1.02mm 12 W/m2
18:29 54.1 °F /  12.3 °C 49.6 °F /  9.8 °C 29.99in /  1015.5hPa ENE 0.3mph /  0.5km/h 3mph /  4.8km/h 84.5% 0.05in /  1.27mm 12 W/m2
18:34 53.7 °F /  12.1 °C 49.3 °F /  9.6 °C 29.99in /  1015.5hPa Calm   3mph /  4.8km/h 84.9% 0.05in /  1.27mm 12 W/m2
18:39 53.5 °F /  11.9 °C 49.2 °F /  9.6 °C 29.98in /  1015.1hPa East 0.1mph /  0.2km/h 3mph /  4.8km/h 85.5% 0.04in /  1.02mm 12 W/m2
18:44 53.1 °F /  11.7 °C 48.8 °F /  9.3 °C 29.99in /  1015.5hPa Calm   3mph /  4.8km/h 85.4% 0.04in /  1.02mm 12 W/m2
18:49 52.8 °F /  11.6 °C 48.7 °F /  9.3 °C 29.98in /  1015.1hPa ENE 0.6mph /  1km/h 5mph /  8km/h 86% 0.04in /  1.02mm 14 W/m2
18:54 52.6 °F /  11.4 °C 48.7 °F /  9.3 °C 29.99in /  1015.5hPa Calm   5mph /  8km/h 86.7% 0.05in /  1.27mm 12 W/m2
18:59 52.5 °F /  11.4 °C 48.7 °F /  9.3 °C 29.99in /  1015.5hPa NNE 0.1mph /  0.2km/h 5mph /  8km/h 87% 0.05in /  1.27mm 5 W/m2
19:04 52.4 °F /  11.3 °C 49 °F /  9.4 °C 29.99in /  1015.5hPa Calm   5mph /  8km/h 88% 0.05in /  1.27mm 7 W/m2
19:09 52.3 °F /  11.3 °C 48.9 °F /  9.4 °C 29.99in /  1015.5hPa Calm     88% 0.03in /  0.76mm 7 W/m2
19:14 52.3 °F /  11.3 °C 49 °F /  9.4 °C 29.99in /  1015.5hPa NNE 0.1mph /  0.2km/h 2mph /  3.2km/h 88.6% 0.03in /  0.76mm 0 W/m2
19:19 52.3 °F /  11.3 °C 49.1 °F /  9.5 °C 29.99in /  1015.5hPa Calm   2mph /  3.2km/h 89% 0.03in /  0.76mm 0 W/m2
19:24 52.2 °F /  11.2 °C 49.3 °F /  9.6 °C 29.99in /  1015.5hPa Calm   2mph /  3.2km/h 89.7% 0.04in /  1.02mm 0 W/m2
19:29 52.1 °F /  11.2 °C 49.3 °F /  9.6 °C 30.00in /  1015.8hPa Calm   2mph /  3.2km/h 90% 0.04in /  1.02mm 0 W/m2
19:34 51.9 °F /  11.1 °C 49.1 °F /  9.5 °C 30.00in /  1015.8hPa Calm   2mph /  3.2km/h 90% 0.04in /  1.02mm 0 W/m2
19:39 51.8 °F /  11 °C 48.9 °F /  9.4 °C 30.00in /  1015.8hPa NNW 0.6mph /  1km/h 6mph /  9.7km/h 90% 0.02in /  0.51mm 0 W/m2
19:44 51.5 °F /  10.8 °C 48.7 °F /  9.3 °C 29.99in /  1015.5hPa Calm   6mph /  9.7km/h 90% 0.02in /  0.51mm 0 W/m2
19:49 51.3 °F /  10.7 °C 48.4 °F /  9.1 °C 29.99in /  1015.5hPa NW 1.4mph /  2.3km/h 7mph /  11.3km/h 90% 0.02in /  0.51mm 0 W/m2
19:54 51.1 °F /  10.6 °C 48.2 °F /  9 °C 30.00in /  1015.8hPa NNW 2.1mph /  3.4km/h 7mph /  11.3km/h 90% 0.03in /  0.76mm 0 W/m2
19:59 50.8 °F /  10.4 °C 47.9 °F /  8.8 °C 29.99in /  1015.5hPa NNW 1.5mph /  2.4km/h 7mph /  11.3km/h 90% 0.03in /  0.76mm 0 W/m2
20:04 50.4 °F /  10.2 °C 47.6 °F /  8.7 °C 29.98in /  1015.1hPa Calm     90% 0.03in /  0.76mm 0 W/m2
20:09 50.3 °F /  10.2 °C 47.7 °F /  8.7 °C 29.98in /  1015.1hPa NE 1.2mph /  1.9km/h 6mph /  9.7km/h 90.8% 0.03in /  0.76mm 0 W/m2
20:14 50.1 °F /  10.1 °C 47.5 °F /  8.6 °C 29.98in /  1015.1hPa North 1.1mph /  1.8km/h 6mph /  9.7km/h 91% 0.03in /  0.76mm 0 W/m2
20:19 50 °F /  10 °C 47.6 °F /  8.7 °C 29.98in /  1015.1hPa NNW 0.3mph /  0.5km/h 6mph /  9.7km/h 91.6% 0.03in /  0.76mm 0 W/m2
20:24 49.8 °F /  9.9 °C 47.2 °F /  8.4 °C 29.98in /  1015.1hPa ENE 1mph /  1.6km/h 6mph /  9.7km/h 91% 0.04in /  1.02mm 0 W/m2
20:29 49.6 °F /  9.8 °C 47.3 °F /  8.5 °C 29.98in /  1015.1hPa ENE 1.2mph /  1.9km/h 6mph /  9.7km/h 91.7% 0.04in /  1.02mm 0 W/m2
20:34 49.5 °F /  9.7 °C 47.2 °F /  8.4 °C 29.98in /  1015.1hPa NE 1.2mph /  1.9km/h 6mph /  9.7km/h 92% 0.04in /  1.02mm 0 W/m2
20:39 49.3 °F /  9.6 °C 47.1 °F /  8.4 °C 29.98in /  1015.1hPa ENE 1.4mph /  2.3km/h 6mph /  9.7km/h 92% 0.02in /  0.51mm 0 W/m2
20:44 49.2 °F /  9.6 °C 47 °F /  8.3 °C 29.99in /  1015.5hPa ENE 2.6mph /  4.2km/h 7mph /  11.3km/h 92% 0.02in /  0.51mm 0 W/m2
20:49 49.2 °F /  9.6 °C 47.2 °F /  8.4 °C 29.99in /  1015.5hPa NNE 0.8mph /  1.3km/h 7mph /  11.3km/h 92.8% 0.02in /  0.51mm 0 W/m2
20:54 49.2 °F /  9.6 °C 47.3 °F /  8.5 °C 29.98in /  1015.1hPa NNE 0.4mph /  0.6km/h 7mph /  11.3km/h 93% 0.03in /  0.76mm 0 W/m2
20:59 49.2 °F /  9.6 °C 47.3 °F /  8.5 °C 29.99in /  1015.5hPa NE 1.4mph /  2.3km/h 7mph /  11.3km/h 93% 0.03in /  0.76mm 0 W/m2
21:04 49.3 °F /  9.6 °C 47.4 °F /  8.6 °C 29.98in /  1015.1hPa ENE 3.1mph /  5km/h 9mph /  14.5km/h 93% 0.03in /  0.76mm 0 W/m2
21:09 49.4 °F /  9.7 °C 47.4 °F /  8.6 °C 29.99in /  1015.5hPa ENE 2.9mph /  4.7km/h 10mph /  16.1km/h 93% 0.01in /  0.25mm 0 W/m2
21:14 49.5 °F /  9.7 °C 47.6 °F /  8.7 °C 29.99in /  1015.5hPa ENE 3.9mph /  6.3km/h 12mph /  19.3km/h 93.2% 0.01in /  0.25mm 0 W/m2
21:19 49.6 °F /  9.8 °C 47.9 °F /  8.8 °C 29.99in /  1015.5hPa ENE 3.5mph /  5.6km/h 12mph /  19.3km/h 93.8% 0.01in /  0.25mm 0 W/m2
21:24 49.8 °F /  9.9 °C 48.2 °F /  9 °C 30.00in /  1015.8hPa ENE 3.2mph /  5.1km/h 12mph /  19.3km/h 94% 0.02in /  0.51mm 0 W/m2
21:29 49.9 °F /  9.9 °C 48.3 °F /  9.1 °C 29.99in /  1015.5hPa ENE 3.8mph /  6.1km/h 12mph /  19.3km/h 94% 0.02in /  0.51mm 0 W/m2
21:34 50 °F /  10 °C 48.3 °F /  9.1 °C 29.99in /  1015.5hPa ENE 3.7mph /  6km/h 12mph /  19.3km/h 94% 0.02in /  0.51mm 0 W/m2
21:39 50.1 °F /  10.1 °C 48.4 °F /  9.1 °C 30.00in /  1015.8hPa East 2.1mph /  3.4km/h 12mph /  19.3km/h 94% 0.02in /  0.51mm 0 W/m2
21:44 50.1 °F /  10.1 °C 48.4 °F /  9.1 °C 30.01in /  1016.1hPa ENE 1.1mph /  1.8km/h 12mph /  19.3km/h 94% 0.03in /  0.76mm 0 W/m2
21:49 50.1 °F /  10.1 °C 48.4 °F /  9.1 °C 30.00in /  1015.8hPa East 3.3mph /  5.3km/h 12mph /  19.3km/h 94% 0.03in /  0.76mm 0 W/m2
21:54 50 °F /  10 °C 48.4 °F /  9.1 °C 29.99in /  1015.5hPa East 3.9mph /  6.3km/h 12mph /  19.3km/h 94% 0.03in /  0.76mm 0 W/m2
21:59 50 °F /  10 °C 48.3 °F /  9.1 °C 29.98in /  1015.1hPa East 5.4mph /  8.7km/h 12mph /  19.3km/h 94% 0.04in /  1.02mm 0 W/m2
22:04 49.9 °F /  9.9 °C 48.3 °F /  9.1 °C 29.97in /  1014.8hPa ENE 4.2mph /  6.8km/h 12mph /  19.3km/h 94% 0.04in /  1.02mm 0 W/m2
22:09 49.9 °F /  9.9 °C 48.3 °F /  9.1 °C 29.98in /  1015.1hPa NE 1.6mph /  2.6km/h 11mph /  17.7km/h 94% 0.04in /  1.02mm 0 W/m2
22:14 49.9 °F /  9.9 °C 48.3 °F /  9.1 °C 29.98in /  1015.1hPa ENE 4.8mph /  7.7km/h 11mph /  17.7km/h 94% 0.05in /  1.27mm 0 W/m2
22:19 50 °F /  10 °C 48.3 °F /  9.1 °C 29.97in /  1014.8hPa NE 2.9mph /  4.7km/h 11mph /  17.7km/h 94% 0.05in /  1.27mm 0 W/m2
22:24 49.9 °F /  9.9 °C 48.3 °F /  9.1 °C 29.99in /  1015.5hPa ENE 2.8mph /  4.5km/h 11mph /  17.7km/h 94% 0.06in /  1.52mm 0 W/m2
22:29 49.9 °F /  9.9 °C 48.2 °F /  9 °C 30.00in /  1015.8hPa NE 4.5mph /  7.2km/h 13mph /  20.9km/h 94% 0.06in /  1.52mm 0 W/m2
22:34 49.7 °F /  9.8 °C 48 °F /  8.9 °C 30.00in /  1015.8hPa ENE 5.2mph /  8.4km/h 14mph /  22.5km/h 94% 0.06in /  1.52mm 0 W/m2
22:39 49.5 °F /  9.7 °C 47.8 °F /  8.8 °C 30.00in /  1015.8hPa ENE 4.3mph /  6.9km/h 14mph /  22.5km/h 94% 0.06in /  1.52mm 0 W/m2
22:44 49.4 °F /  9.7 °C 47.8 °F /  8.8 °C 30.01in /  1016.1hPa NE 1.3mph /  2.1km/h 14mph /  22.5km/h 94% 0.07in /  1.78mm 0 W/m2
22:49 49.4 °F /  9.7 °C 47.8 °F /  8.8 °C 30.01in /  1016.1hPa ENE 2.6mph /  4.2km/h 14mph /  22.5km/h 94% 0.08in /  2.03mm 0 W/m2
22:54 49.4 °F /  9.7 °C 47.8 °F /  8.8 °C 30.01in /  1016.1hPa ENE 1.5mph /  2.4km/h 14mph /  22.5km/h 94% 0.09in /  2.29mm 0 W/m2
22:59 49.5 °F /  9.7 °C 47.8 °F /  8.8 °C 30.00in /  1015.8hPa ENE 2.3mph /  3.7km/h 14mph /  22.5km/h 94% 0.10in /  2.54mm 0 W/m2
23:04 49.4 °F /  9.7 °C 47.7 °F /  8.7 °C 29.99in /  1015.5hPa ENE 4.1mph /  6.6km/h 14mph /  22.5km/h 94% 0.10in /  2.54mm 0 W/m2
23:09 49 °F /  9.4 °C 47.4 °F /  8.6 °C 29.99in /  1015.5hPa ENE 1.8mph /  2.9km/h 11mph /  17.7km/h 94% 0.09in /  2.29mm 0 W/m2
23:14 48.8 °F /  9.3 °C 47.2 °F /  8.4 °C 29.99in /  1015.5hPa NE 3.4mph /  5.5km/h 13mph /  20.9km/h 94% 0.11in /  2.79mm 0 W/m2
23:19 48.7 °F /  9.3 °C 47.1 °F /  8.4 °C 30.00in /  1015.8hPa NE 2.3mph /  3.7km/h 15mph /  24.1km/h 94% 0.12in /  3.05mm 0 W/m2
23:24 48.7 °F /  9.3 °C 47 °F /  8.3 °C 30.00in /  1015.8hPa ENE 2.4mph /  3.9km/h 15mph /  24.1km/h 94% 0.13in /  3.3mm 0 W/m2
23:29 48.6 °F /  9.2 °C 46.9 °F /  8.3 °C 29.98in /  1015.1hPa ENE 4.3mph /  6.9km/h 15mph /  24.1km/h 94% 0.15in /  3.81mm 0 W/m2
23:34 48.5 °F /  9.2 °C 46.8 °F /  8.2 °C 29.99in /  1015.5hPa NE 2.9mph /  4.7km/h 15mph /  24.1km/h 94% 0.15in /  3.81mm 0 W/m2
23:39 48.3 °F /  9.1 °C 46.7 °F /  8.2 °C 29.99in /  1015.5hPa ENE 1.7mph /  2.7km/h 9mph /  14.5km/h 94% 0.14in /  3.56mm 0 W/m2
23:44 48.2 °F /  9 °C 46.6 °F /  8.1 °C 29.99in /  1015.5hPa NE 3.4mph /  5.5km/h 10mph /  16.1km/h 94% 0.16in /  4.06mm 0 W/m2
23:49 48.1 °F /  8.9 °C 46.5 °F /  8.1 °C 29.98in /  1015.1hPa ENE 3mph /  4.8km/h 10mph /  16.1km/h 94% 0.17in /  4.32mm 0 W/m2
23:54 48 °F /  8.9 °C 46.4 °F /  8 °C 29.98in /  1015.1hPa ENE 3.8mph /  6.1km/h 15mph /  24.1km/h 94% 0.19in /  4.83mm 0 W/m2
23:59 47.9 °F /  8.8 °C 46.3 °F /  7.9 °C 29.97in /  1014.8hPa ENE 3.2mph /  5.1km/h 15mph /  24.1km/h 94% 0.20in /  5.08mm 0 W/m2
Hartford County Weather
Compliments of Weather Underground - 4 mb